Nearby METAR Reports

Meteorological Terminal Air Report (METAR)

K3I2 - Pt Pleasant, West Virginia, USA
Distance from station: S 11mi, 18km
Updated: Tue, 18-Sep-2018 3:10pm EDT
NOT Current
Partly cloudy
Partly cloudy
 Wind from SSW
Wind: SSW 3 mph , 6 km/h
Temperature: 88°F , 31°C
Heat Index: 93°F , 34°C
Dew Point: 70°F , 21°C
Humidity: 55%
Barometer: 29.94 inHg , 1013.9 hPa
Clouds: Partly cloudy
Visibility: 7 miles , 11 km
Cloud details: Partly cloudy 4000 ft
Partly cloudy 4600 ft
2018/09/18 19:10 K3I2 181910Z AUTO 21003KT 7SM SCT040 SCT046 31/21 A2994 RMK AO2 T03080214 PNO
KUNI - Athens, Ohio, USA
Distance from station: NW 13mi, 21km
Updated: Tue, 18-Sep-2018 10:55pm EDT
Clear
Clear
 Wind from calm
Wind: Calm
Temperature: 70°F , 21°C
Dew Point: 70°F , 21°C
Humidity: 100%
Barometer: 29.94 inHg , 1013.9 hPa
Clouds: Clear
Visibility: 10 miles , 16 km
2018/09/19 02:55 KUNI 190255Z AUTO 00000KT 10SM CLR 21/21 A2994 RMK AO2 T02100210
 
KPKB - Parkersburg, West Virginia, USA
Distance from station: ENE 40mi, 65km
Updated: Tue, 18-Sep-2018 10:53pm EDT
Clear
Clear
 Wind from calm
Wind: Calm
Temperature: 70°F , 21°C
Dew Point: 68°F , 20°C
Humidity: 94%
Barometer: 29.98 inHg , 1015.2 hPa
Clouds: Clear
Visibility: 7 miles , 11 km
2018/09/19 02:53 KPKB 190253Z 00000KT 7SM CLR 21/20 A2998 RMK AO2 SLP144 T02110200 51006
KCRW - Charleston, West Virginia, USA
Distance from station: SSE 55mi, 88km
Updated: Tue, 18-Sep-2018 10:54pm EDT
Few Clouds
Few Clouds
 Wind from calm
Wind: Calm
Temperature: 70°F , 21°C
Dew Point: 70°F , 21°C
Humidity: 100%
Barometer: 29.96 inHg , 1014.6 hPa
Clouds: Few Clouds
Visibility: 10 miles , 16 km
Cloud details: Few Clouds 7000 ft
2018/09/19 02:54 KCRW 190254Z 00000KT 10SM FEW070 21/21 A2996 RMK AO2 SLP137 T02110206 51007
 
KHTS - Huntington, West Virginia, USA
Distance from station: SSW 55mi, 89km
Updated: Tue, 18-Sep-2018 10:51pm EDT
Clear
Clear
 Wind from ESE
Wind: ESE 3 mph , 6 km/h
Temperature: 72°F , 22°C
Dew Point: 70°F , 21°C
Humidity: 94%
Barometer: 29.95 inHg , 1014.2 hPa
Clouds: Clear
Visibility: 10 miles , 16 km
2018/09/19 02:51 KHTS 190251Z 11003KT 10SM CLR 22/21 A2995 RMK AO2 SLP132 T02220206 51008
KLHQ - Lancaster, Ohio, USA
Distance from station: NW 56mi, 91km
Updated: Tue, 18-Sep-2018 10:53pm EDT
Clear
Clear
 Wind from calm
Wind: Calm
Temperature: 64°F , 18°C
Dew Point: 64°F , 18°C
Humidity: 100%
Barometer: 29.94 inHg , 1013.9 hPa
Clouds: Clear
Visibility: 10 miles , 16 km
2018/09/19 02:53 KLHQ 190253Z AUTO 00000KT 10SM CLR 18/18 A2994 RMK AO2 SLP133 T01830183 53010
 
KZZV - Zanesville, Ohio, USA
Distance from station: N 61mi, 99km
Updated: Tue, 18-Sep-2018 10:53pm EDT
Clear
Clear
 Wind from calm
Wind: Calm
Temperature: 70°F , 21°C
Dew Point: 66°F , 19°C
Humidity: 88%
Barometer: 29.94 inHg , 1013.9 hPa
Clouds: Clear
Visibility: 8 miles , 13 km
2018/09/19 02:53 KZZV 190253Z AUTO 00000KT 8SM CLR 21/19 A2994 RMK AO2 SLP132 T02110194 53008
KLCK - Rickenbacker Ang, Ohio, USA
Distance from station: NW 68mi, 110km
Updated: Tue, 18-Sep-2018 10:55pm EDT
Clear
Clear
 Wind from calm
Wind: Calm
Temperature: 70°F , 21°C
Dew Point: 64°F , 18°C
Humidity: 83%
Barometer: 29.93 inHg , 1013.5 hPa
Clouds: Clear
Visibility: 10 miles , 16 km
2018/09/19 02:55 KLCK 190255Z AUTO 00000KT 10SM CLR 21/18 A2993 RMK AO2 T02060177
 
KVTA - Newark, Ohio, USA
Distance from station: NNW 68mi, 110km
Updated: Tue, 18-Sep-2018 10:54pm EDT
Clear
Clear
 Wind from calm
Wind: Calm
Temperature: 66°F , 19°C
Dew Point: 64°F , 18°C
Humidity: 94%
Barometer: 29.94 inHg , 1013.9 hPa
Clouds: Clear
Visibility: 10 miles , 16 km
2018/09/19 02:54 KVTA 190254Z AUTO 00000KT 10SM CLR 19/18 A2994 RMK AO2 SLP132 T01890183 53012